createdAt,value
2022-11-25T00:01:06.801Z,3.80
2022-11-25T00:03:33.463Z,3.80
2022-11-25T00:06:12.272Z,3.70
2022-11-25T00:08:38.874Z,3.80
2022-11-25T00:11:05.548Z,3.80
2022-11-25T00:13:32.239Z,3.80
2022-11-25T00:16:05.566Z,3.90
2022-11-25T00:18:32.208Z,3.80
2022-11-25T00:20:58.903Z,3.80
2022-11-25T00:23:30.391Z,3.80
2022-11-25T00:26:05.748Z,3.70
2022-11-25T00:28:32.296Z,3.70
2022-11-25T00:31:12.237Z,3.70
2022-11-25T00:33:38.929Z,3.60
2022-11-25T00:36:06.002Z,3.60
2022-11-25T00:38:32.543Z,3.50
2022-11-25T00:41:17.693Z,3.50
2022-11-25T00:44:02.888Z,3.50
2022-11-25T00:46:29.560Z,3.50
2022-11-25T00:48:56.102Z,3.50
2022-11-25T00:51:22.736Z,3.50
2022-11-25T00:53:49.315Z,3.50
2022-11-25T00:56:16.543Z,3.40
2022-11-25T00:58:43.343Z,3.40
2022-11-25T01:01:10.150Z,3.30
2022-11-25T01:03:39.464Z,3.40
2022-11-25T01:06:07.020Z,3.30
2022-11-25T01:08:33.659Z,3.20
2022-11-25T01:11:00.680Z,3.20
2022-11-25T01:13:27.318Z,3.10
2022-11-25T01:15:53.862Z,3.10
2022-11-25T01:18:20.400Z,3.00
2022-11-25T01:20:47.008Z,3.10
2022-11-25T01:23:13.551Z,3.10
2022-11-25T01:25:40.153Z,3.10
2022-11-25T01:28:06.718Z,3.20
2022-11-25T01:30:35.908Z,3.20
2022-11-25T01:33:06.380Z,3.20
2022-11-25T01:35:32.917Z,3.20
2022-11-25T01:37:59.467Z,3.30
2022-11-25T01:40:25.999Z,3.30
2022-11-25T01:42:52.800Z,3.30
2022-11-25T01:45:24.536Z,3.30
2022-11-25T01:47:54.412Z,3.30
2022-11-25T01:50:21.031Z,3.30
2022-11-25T01:52:48.131Z,3.30
2022-11-25T01:55:18.873Z,3.30
2022-11-25T01:57:49.604Z,3.30
2022-11-25T02:00:16.366Z,3.20
2022-11-25T02:02:43.068Z,3.30
2022-11-25T02:05:10.575Z,3.30
2022-11-25T02:07:38.159Z,3.40
2022-11-25T02:10:06.220Z,3.40
2022-11-25T02:12:33.440Z,3.40
2022-11-25T02:15:00.197Z,3.40
2022-11-25T02:17:26.766Z,3.40
2022-11-25T02:19:58.700Z,3.50
2022-11-25T02:22:38.648Z,3.50
2022-11-25T02:25:10.789Z,3.50
2022-11-25T02:27:37.364Z,3.50
2022-11-25T02:30:04.060Z,3.50
2022-11-25T02:32:30.619Z,3.40
2022-11-25T02:34:57.180Z,3.50
2022-11-25T02:37:24.000Z,3.50
2022-11-25T02:39:50.554Z,3.50
2022-11-25T02:42:17.256Z,3.50
2022-11-25T02:44:43.797Z,3.50
2022-11-25T02:47:10.342Z,3.40
2022-11-25T02:49:36.895Z,3.40
2022-11-25T02:52:03.462Z,3.50
2022-11-25T02:54:30.004Z,3.50
2022-11-25T02:56:56.570Z,3.50
2022-11-25T02:59:23.106Z,3.50
2022-11-25T03:01:49.718Z,3.50
2022-11-25T03:04:16.304Z,3.50
2022-11-25T03:06:42.909Z,3.50
2022-11-25T03:09:09.445Z,3.50
2022-11-25T03:11:54.784Z,3.40
2022-11-25T03:14:21.323Z,3.50
2022-11-25T03:16:48.096Z,3.50
2022-11-25T03:19:14.688Z,3.50
2022-11-25T03:21:41.234Z,3.50
2022-11-25T03:24:07.775Z,3.50
2022-11-25T03:26:34.328Z,3.40
2022-11-25T03:29:00.868Z,3.40
2022-11-25T03:31:27.487Z,3.40
2022-11-25T03:33:55.177Z,3.40
2022-11-25T03:36:21.723Z,3.40
2022-11-25T03:38:48.272Z,3.40
2022-11-25T03:41:14.819Z,3.40
2022-11-25T03:43:41.365Z,3.50
2022-11-25T03:46:07.995Z,3.40
2022-11-25T03:48:34.616Z,3.40
2022-11-25T03:51:01.156Z,3.40
2022-11-25T03:53:27.736Z,3.40
2022-11-25T03:55:54.275Z,3.40
2022-11-25T03:58:20.823Z,3.40
2022-11-25T04:00:47.355Z,3.40
2022-11-25T04:03:13.964Z,3.30
2022-11-25T04:05:41.121Z,3.30
2022-11-25T04:08:07.795Z,3.20
2022-11-25T04:10:34.364Z,3.20
2022-11-25T04:13:00.920Z,3.20
2022-11-25T04:15:27.534Z,3.10
2022-11-25T04:17:54.087Z,3.10
2022-11-25T04:20:20.615Z,3.20
2022-11-25T04:22:47.171Z,3.20
2022-11-25T04:25:13.703Z,3.20
2022-11-25T04:27:40.251Z,3.20
2022-11-25T04:30:07.101Z,3.20
2022-11-25T04:32:33.656Z,3.20
2022-11-25T04:35:00.185Z,3.20
2022-11-25T04:37:26.734Z,3.20
2022-11-25T04:39:55.080Z,3.20
2022-11-25T04:42:34.673Z,3.20
2022-11-25T04:45:21.962Z,3.20
2022-11-25T04:47:48.781Z,3.20
2022-11-25T04:50:16.148Z,3.30
2022-11-25T04:52:42.714Z,3.30
2022-11-25T04:55:09.558Z,3.30
2022-11-25T04:57:36.111Z,3.40
2022-11-25T05:00:03.112Z,3.40
2022-11-25T05:02:29.810Z,3.50
2022-11-25T05:04:56.754Z,3.50
2022-11-25T05:07:23.930Z,3.60
2022-11-25T05:09:50.486Z,3.50
2022-11-25T05:12:18.320Z,3.50
2022-11-25T05:14:44.854Z,3.60
2022-11-25T05:17:16.132Z,3.60
2022-11-25T05:19:42.726Z,3.60
2022-11-25T05:22:12.815Z,3.60
2022-11-25T05:24:39.358Z,3.70
2022-11-25T05:27:06.112Z,3.70
2022-11-25T05:29:32.646Z,3.80
2022-11-25T05:31:59.208Z,3.80
2022-11-25T05:34:25.821Z,3.80
2022-11-25T05:36:52.359Z,3.80
2022-11-25T05:39:18.942Z,3.80
2022-11-25T05:41:45.545Z,3.90
2022-11-25T05:44:12.118Z,3.90
2022-11-25T05:46:38.663Z,3.90
2022-11-25T05:49:05.212Z,3.90
2022-11-25T05:51:31.751Z,3.90
2022-11-25T05:53:58.371Z,3.90
2022-11-25T05:56:24.947Z,4.00
2022-11-25T05:58:51.560Z,4.00
2022-11-25T06:01:18.142Z,4.10
2022-11-25T06:03:44.743Z,4.10
2022-11-25T06:06:11.380Z,4.10
2022-11-25T06:08:38.373Z,4.10
2022-11-25T06:11:05.704Z,4.10
2022-11-25T06:13:32.257Z,4.20
2022-11-25T06:16:01.222Z,4.20
2022-11-25T06:18:32.898Z,4.20
2022-11-25T06:20:59.512Z,4.30
2022-11-25T06:23:26.189Z,4.30
2022-11-25T06:25:52.751Z,4.40
2022-11-25T06:28:19.312Z,4.40
2022-11-25T06:30:45.880Z,4.40
2022-11-25T06:33:12.499Z,4.40
2022-11-25T06:35:39.037Z,4.50
2022-11-25T06:38:05.654Z,4.40
2022-11-25T06:40:33.155Z,4.40
2022-11-25T06:42:59.708Z,4.40
2022-11-25T06:45:26.247Z,4.40
2022-11-25T06:47:53.601Z,4.30
2022-11-25T06:50:20.154Z,4.40
2022-11-25T06:52:46.727Z,4.40
2022-11-25T06:55:13.279Z,4.40
2022-11-25T06:57:39.851Z,4.30
2022-11-25T07:00:06.711Z,4.30
2022-11-25T07:02:39.773Z,4.30
2022-11-25T07:05:08.478Z,4.30
2022-11-25T07:07:35.115Z,4.20
2022-11-25T07:10:01.677Z,4.20
2022-11-25T07:12:28.216Z,4.20
2022-11-25T07:14:54.761Z,4.20
2022-11-25T07:17:21.296Z,4.30
2022-11-25T07:19:47.842Z,4.30
2022-11-25T07:22:14.371Z,4.30
2022-11-25T07:24:40.920Z,4.30
2022-11-25T07:27:08.128Z,4.30
2022-11-25T07:29:54.499Z,4.30
2022-11-25T07:32:22.581Z,4.40
2022-11-25T07:34:50.227Z,4.40
2022-11-25T07:37:17.796Z,4.50
2022-11-25T07:39:44.342Z,4.50
2022-11-25T07:42:10.892Z,4.60
2022-11-25T07:44:37.455Z,4.60
2022-11-25T07:47:04.007Z,4.60
2022-11-25T07:49:30.555Z,4.70
2022-11-25T07:51:59.525Z,4.80
2022-11-25T07:54:26.128Z,4.80
2022-11-25T07:56:53.519Z,4.80
2022-11-25T07:59:20.806Z,4.90
2022-11-25T08:01:50.590Z,5.00
2022-11-25T08:04:20.460Z,5.00
2022-11-25T08:06:48.315Z,5.10
2022-11-25T08:09:16.000Z,5.10
2022-11-25T08:11:42.600Z,5.10
2022-11-25T08:14:10.267Z,5.10
2022-11-25T08:16:36.807Z,5.10
2022-11-25T08:19:04.240Z,5.20
2022-11-25T08:21:30.777Z,5.30
2022-11-25T08:23:57.360Z,5.30
2022-11-25T08:26:25.799Z,5.40
2022-11-25T08:28:52.968Z,5.40
2022-11-25T08:31:20.581Z,5.40
2022-11-25T08:33:47.346Z,5.50
2022-11-25T08:36:14.039Z,5.60
2022-11-25T08:38:40.717Z,5.60
2022-11-25T08:41:11.127Z,5.70
2022-11-25T08:43:37.726Z,5.70
2022-11-25T08:46:07.110Z,5.80
2022-11-25T08:48:33.687Z,5.90
2022-11-25T08:51:00.243Z,5.90
2022-11-25T08:53:26.808Z,5.90
2022-11-25T08:55:53.344Z,5.90
2022-11-25T08:58:20.007Z,5.90
2022-11-25T09:00:46.561Z,5.90
2022-11-25T09:03:13.240Z,5.90
2022-11-25T09:05:40.505Z,6.00
2022-11-25T09:08:07.427Z,6.00
2022-11-25T09:10:34.145Z,6.00
2022-11-25T09:13:00.834Z,6.00
2022-11-25T09:15:27.397Z,6.00
2022-11-25T09:18:00.460Z,6.00
2022-11-25T09:20:27.180Z,6.00
2022-11-25T09:22:53.742Z,6.00
2022-11-25T09:25:21.021Z,6.10
2022-11-25T09:27:47.613Z,6.10
2022-11-25T09:30:14.400Z,6.20
2022-11-25T09:32:40.930Z,6.20
2022-11-25T09:35:07.667Z,6.30
2022-11-25T09:37:34.339Z,6.30
2022-11-25T09:40:00.899Z,6.30
2022-11-25T09:43:04.900Z,6.40
2022-11-25T09:45:55.471Z,6.40
2022-11-25T09:48:27.086Z,6.40
2022-11-25T09:51:13.898Z,6.50
2022-11-25T09:53:47.690Z,6.60
2022-11-25T09:56:17.577Z,6.60
2022-11-25T09:58:48.681Z,6.70
2022-11-25T10:01:20.884Z,6.70
2022-11-25T10:03:53.368Z,6.80
2022-11-25T10:06:23.950Z,6.90
2022-11-25T10:08:51.225Z,7.00
2022-11-25T10:11:21.138Z,7.10
2022-11-25T10:13:54.286Z,7.10
2022-11-25T10:16:44.983Z,7.10
2022-11-25T10:19:15.104Z,7.10
2022-11-25T10:21:41.648Z,7.20
2022-11-25T10:24:12.381Z,7.20
2022-11-25T10:26:39.292Z,7.20
2022-11-25T10:29:19.825Z,7.20
2022-11-25T10:31:46.415Z,7.10
2022-11-25T10:34:21.062Z,7.20
2022-11-25T10:36:47.802Z,7.20
2022-11-25T10:39:14.331Z,7.30
2022-11-25T10:41:57.520Z,7.20
2022-11-25T10:44:24.043Z,7.30
2022-11-25T10:47:13.905Z,7.30
2022-11-25T10:49:41.280Z,7.20
2022-11-25T10:52:09.943Z,7.20
2022-11-25T10:54:36.486Z,7.20
2022-11-25T10:57:03.451Z,7.20
2022-11-25T10:59:34.167Z,7.20
2022-11-25T11:02:14.568Z,7.20
2022-11-25T11:04:50.379Z,7.20
2022-11-25T11:07:16.971Z,7.10
2022-11-25T11:09:43.613Z,7.10
2022-11-25T11:12:14.566Z,7.20
2022-11-25T11:14:41.220Z,7.20
2022-11-25T11:17:08.857Z,7.20
2022-11-25T11:19:35.412Z,7.20
2022-11-25T11:22:22.205Z,7.20
2022-11-25T11:24:48.764Z,7.20
2022-11-25T11:27:17.513Z,7.20
2022-11-25T11:29:44.076Z,7.20
2022-11-25T11:32:19.355Z,7.20
2022-11-25T11:34:49.347Z,7.30
2022-11-25T11:37:15.857Z,7.20
2022-11-25T11:39:59.831Z,7.30
2022-11-25T11:42:41.719Z,7.30
2022-11-25T11:45:23.537Z,7.30
2022-11-25T11:48:04.169Z,7.40
2022-11-25T11:50:47.439Z,7.40
2022-11-25T11:53:20.166Z,7.50
2022-11-25T11:59:07.661Z,7.50
2022-11-25T12:01:34.215Z,7.50
2022-11-25T12:04:02.883Z,7.40
2022-11-25T12:06:29.980Z,7.40
2022-11-25T12:08:59.184Z,7.50
2022-11-25T12:11:27.281Z,7.50
2022-11-25T12:14:00.711Z,7.60
2022-11-25T12:16:30.267Z,7.60
2022-11-25T12:18:59.109Z,7.60
2022-11-25T12:21:29.963Z,7.60
2022-11-25T12:24:26.128Z,7.70
2022-11-25T12:27:11.319Z,7.80
2022-11-25T12:29:45.075Z,7.80
2022-11-25T12:32:26.890Z,7.90
2022-11-25T12:34:57.927Z,7.90
2022-11-25T12:37:30.522Z,8.00
2022-11-25T12:40:00.473Z,8.00
2022-11-25T12:42:27.087Z,8.10
2022-11-25T12:44:59.367Z,8.20
2022-11-25T12:47:26.089Z,8.20
2022-11-25T12:49:53.010Z,8.40
2022-11-25T12:52:29.019Z,8.40
2022-11-25T12:55:00.972Z,8.50
2022-11-25T12:57:49.242Z,8.50
2022-11-25T13:03:26.532Z,8.60
2022-11-25T13:05:53.066Z,8.70
2022-11-25T13:08:28.687Z,8.70
2022-11-25T13:11:12.348Z,8.60
2022-11-25T13:14:00.154Z,8.60
2022-11-25T13:16:27.597Z,8.70
2022-11-25T13:18:54.750Z,8.80
2022-11-25T13:21:22.440Z,8.90
2022-11-25T13:23:49.717Z,9.10
2022-11-25T13:26:28.351Z,9.20
2022-11-25T13:28:55.447Z,9.20
2022-11-25T13:31:22.854Z,9.20
2022-11-25T13:33:49.524Z,9.20
2022-11-25T13:36:17.193Z,9.10
2022-11-25T13:38:49.873Z,9.10
2022-11-25T13:41:16.473Z,9.10
2022-11-25T13:43:52.047Z,9.10
2022-11-25T13:46:48.054Z,9.10
2022-11-25T13:49:23.764Z,9.10
2022-11-25T13:51:50.969Z,9.10
2022-11-25T13:54:18.319Z,9.00
2022-11-25T13:56:44.881Z,8.90
2022-11-25T13:59:11.390Z,8.90
2022-11-25T14:01:38.663Z,8.90
2022-11-25T14:04:05.641Z,8.90
2022-11-25T14:06:32.172Z,8.80
2022-11-25T14:09:02.275Z,8.80
2022-11-25T14:11:41.131Z,8.80
2022-11-25T14:14:23.688Z,8.80
2022-11-25T14:17:09.113Z,8.70
2022-11-25T14:19:51.535Z,8.70
2022-11-25T14:22:38.752Z,8.60
2022-11-25T14:25:26.739Z,8.60
2022-11-25T14:28:09.974Z,8.50
2022-11-25T14:30:42.841Z,8.50
2022-11-25T14:33:10.101Z,8.40
2022-11-25T14:35:43.497Z,8.40
2022-11-25T14:38:19.139Z,8.40
2022-11-25T14:40:54.181Z,8.40
2022-11-25T14:43:22.017Z,8.30
2022-11-25T14:45:48.609Z,8.20
2022-11-25T14:48:19.312Z,8.20
2022-11-25T14:50:55.278Z,8.10
2022-11-25T14:53:21.819Z,8.00
2022-11-25T14:55:48.380Z,7.90
2022-11-25T14:58:15.022Z,7.90
2022-11-25T15:00:51.592Z,7.90
2022-11-25T15:03:18.828Z,7.80
2022-11-25T15:05:45.377Z,7.80
2022-11-25T15:08:15.553Z,7.70
2022-11-25T15:10:55.015Z,7.70
2022-11-25T15:13:21.514Z,7.70
2022-11-25T15:15:48.472Z,7.70
2022-11-25T15:18:17.228Z,7.70
2022-11-25T15:20:45.968Z,7.60
2022-11-25T15:23:12.801Z,7.60
2022-11-25T15:25:48.407Z,7.60
2022-11-25T15:28:15.322Z,7.50
2022-11-25T15:30:41.890Z,7.40
2022-11-25T15:33:09.473Z,7.40
2022-11-25T15:35:36.045Z,7.30
2022-11-25T15:38:18.788Z,7.30
2022-11-25T15:40:54.166Z,7.20
2022-11-25T15:43:21.356Z,7.10
2022-11-25T15:45:48.633Z,7.10
2022-11-25T15:48:16.780Z,7.00
2022-11-25T15:50:43.357Z,7.10
2022-11-25T15:53:10.737Z,7.20
2022-11-25T15:55:37.837Z,7.20
2022-11-25T15:58:05.910Z,7.30
2022-11-25T16:00:32.516Z,7.30
2022-11-25T16:02:59.210Z,7.30
2022-11-25T16:05:31.596Z,7.20
2022-11-25T16:07:59.790Z,7.30
2022-11-25T16:10:26.310Z,7.20
2022-11-25T16:13:12.536Z,7.20
2022-11-25T16:15:51.724Z,7.20
2022-11-25T16:18:39.372Z,7.10
2022-11-25T16:21:06.416Z,7.10
2022-11-25T16:23:33.715Z,7.00
2022-11-25T16:26:04.861Z,6.90
2022-11-25T16:28:31.508Z,6.90
2022-11-25T16:31:00.087Z,6.80
2022-11-25T16:33:26.634Z,6.70
2022-11-25T16:35:53.286Z,6.70
2022-11-25T16:38:19.842Z,6.60
2022-11-25T16:40:46.404Z,6.60
2022-11-25T16:43:17.319Z,6.50
2022-11-25T16:45:43.910Z,6.50
2022-11-25T16:48:13.521Z,6.50
2022-11-25T16:50:40.134Z,6.40
2022-11-25T16:53:06.679Z,6.40
2022-11-25T16:55:33.321Z,6.40
2022-11-25T16:57:59.917Z,6.30
2022-11-25T17:00:26.448Z,6.30
2022-11-25T17:02:53.235Z,6.30
2022-11-25T17:05:23.357Z,6.30
2022-11-25T17:07:50.336Z,6.30
2022-11-25T17:10:16.996Z,6.20
2022-11-25T17:12:44.160Z,6.20
2022-11-25T17:15:14.800Z,6.10
2022-11-25T17:17:41.981Z,6.10
2022-11-25T17:20:11.347Z,6.10
2022-11-25T17:22:39.613Z,6.00
2022-11-25T17:25:06.485Z,6.00
2022-11-25T17:27:33.070Z,6.00
2022-11-25T17:30:00.244Z,6.00
2022-11-25T17:32:26.923Z,6.00
2022-11-25T17:34:53.862Z,6.10
2022-11-25T17:37:22.624Z,6.20
2022-11-25T17:39:49.445Z,6.20
2022-11-25T17:42:19.489Z,6.20
2022-11-25T17:44:51.255Z,6.20
2022-11-25T17:47:19.643Z,6.20
2022-11-25T17:49:46.298Z,6.20
2022-11-25T17:52:12.859Z,6.10
2022-11-25T17:54:42.420Z,6.20
2022-11-25T17:57:11.772Z,6.20
2022-11-25T17:59:38.316Z,6.20
2022-11-25T18:02:10.878Z,6.20
2022-11-25T18:04:39.183Z,6.20
2022-11-25T18:07:06.277Z,6.20
2022-11-25T18:09:32.955Z,6.20
2022-11-25T18:11:59.679Z,6.20
2022-11-25T18:14:26.235Z,6.20
2022-11-25T18:16:52.997Z,6.20
2022-11-25T18:19:19.555Z,6.20
2022-11-25T18:21:46.359Z,6.40
2022-11-25T18:24:12.895Z,6.40
2022-11-25T18:26:42.770Z,6.40
2022-11-25T18:29:16.699Z,6.50
2022-11-25T18:31:45.076Z,6.50
2022-11-25T18:34:12.695Z,6.50
2022-11-25T18:36:39.251Z,6.60
2022-11-25T18:39:05.789Z,6.60
2022-11-25T18:41:32.339Z,6.60
2022-11-25T18:43:59.016Z,6.60
2022-11-25T18:46:25.632Z,6.60
2022-11-25T18:48:54.507Z,6.60
2022-11-25T18:51:21.044Z,6.60
2022-11-25T18:53:47.595Z,6.60
2022-11-25T18:56:17.706Z,6.50
2022-11-25T18:58:45.869Z,6.60
2022-11-25T19:01:12.756Z,6.60
2022-11-25T19:03:39.347Z,6.60
2022-11-25T19:06:06.005Z,6.60
2022-11-25T19:08:32.609Z,6.60
2022-11-25T19:10:59.200Z,6.60
2022-11-25T19:13:26.476Z,6.60
2022-11-25T19:15:53.277Z,6.60
2022-11-25T19:18:26.183Z,6.70
2022-11-25T19:20:52.802Z,6.70
2022-11-25T19:23:25.219Z,6.80
2022-11-25T19:25:52.222Z,6.80
2022-11-25T19:28:18.809Z,6.80
2022-11-25T19:30:45.636Z,6.80
2022-11-25T19:33:16.760Z,6.80
2022-11-25T19:35:43.321Z,6.70
2022-11-25T19:38:13.925Z,6.70
2022-11-25T19:40:40.556Z,6.80
2022-11-25T19:43:08.660Z,6.80
2022-11-25T19:45:35.619Z,6.70
2022-11-25T19:48:03.160Z,6.70
2022-11-25T19:50:29.772Z,6.60
2022-11-25T19:52:56.370Z,6.70
2022-11-25T19:55:23.889Z,6.70
2022-11-25T19:57:50.664Z,6.70
2022-11-25T20:00:18.111Z,6.60
2022-11-25T20:02:45.030Z,6.60
2022-11-25T20:05:15.531Z,6.60
2022-11-25T20:07:42.150Z,6.60
2022-11-25T20:10:19.242Z,6.60
2022-11-25T20:12:45.981Z,6.60
2022-11-25T20:15:12.600Z,6.60
2022-11-25T20:17:40.011Z,6.60
2022-11-25T20:20:09.727Z,6.60
2022-11-25T20:22:36.548Z,6.70
2022-11-25T20:25:03.772Z,6.70
2022-11-25T20:27:30.344Z,6.70
2022-11-25T20:29:57.029Z,6.80
2022-11-25T20:32:30.504Z,6.70
2022-11-25T20:34:57.318Z,6.70
2022-11-25T20:37:24.473Z,6.80
2022-11-25T20:39:51.876Z,6.80
2022-11-25T20:42:18.451Z,6.80
2022-11-25T20:44:45.082Z,6.80
2022-11-25T20:47:13.511Z,6.70
2022-11-25T20:49:40.209Z,6.70
2022-11-25T20:52:06.773Z,6.70
2022-11-25T20:54:35.956Z,6.70
2022-11-25T20:57:02.950Z,6.70
2022-11-25T20:59:30.994Z,6.70
2022-11-25T21:01:57.769Z,6.70
2022-11-25T21:04:24.402Z,6.70
2022-11-25T21:06:50.955Z,6.70
2022-11-25T21:09:21.577Z,6.70
2022-11-25T21:11:48.172Z,6.70
2022-11-25T21:14:15.564Z,6.80
2022-11-25T21:16:42.282Z,6.80
2022-11-25T21:19:08.956Z,6.80
2022-11-25T21:21:36.283Z,6.80
2022-11-25T21:24:04.648Z,6.80
2022-11-25T21:26:31.174Z,6.80
2022-11-25T21:28:57.743Z,6.80
2022-11-25T21:31:24.945Z,6.80
2022-11-25T21:33:51.731Z,6.80
2022-11-25T21:36:19.564Z,6.80
2022-11-25T21:38:46.486Z,6.80
2022-11-25T21:41:13.037Z,6.80
2022-11-25T21:43:43.125Z,6.80
2022-11-25T21:46:14.198Z,6.80
2022-11-25T21:48:40.832Z,6.90
2022-11-25T21:51:08.744Z,6.90
2022-11-25T21:53:37.501Z,6.90
2022-11-25T21:56:05.968Z,6.90
2022-11-25T21:58:32.602Z,6.90
2022-11-25T22:00:59.970Z,6.90
2022-11-25T22:03:27.175Z,7.00
2022-11-25T22:05:53.737Z,7.00
2022-11-25T22:08:20.297Z,6.90
2022-11-25T22:10:47.917Z,6.90
2022-11-25T22:13:18.466Z,6.80
2022-11-25T22:15:45.008Z,6.80
2022-11-25T22:18:19.326Z,6.80
2022-11-25T22:20:50.615Z,6.80
2022-11-25T22:23:19.753Z,6.90
2022-11-25T22:25:46.455Z,6.90
2022-11-25T22:28:16.595Z,6.90
2022-11-25T22:30:48.943Z,6.90
2022-11-25T22:33:15.512Z,6.90
2022-11-25T22:35:42.098Z,6.80
2022-11-25T22:38:17.849Z,6.90
2022-11-25T22:40:45.176Z,6.80
2022-11-25T22:43:15.719Z,6.80
2022-11-25T22:45:42.285Z,6.80
2022-11-25T22:48:09.904Z,6.80
2022-11-25T22:50:36.440Z,6.80
2022-11-25T22:53:03.047Z,6.80
2022-11-25T22:55:30.399Z,6.80
2022-11-25T22:57:57.570Z,6.80
2022-11-25T23:00:24.068Z,6.90
2022-11-25T23:02:50.919Z,6.80
2022-11-25T23:05:32.218Z,6.80
2022-11-25T23:08:00.264Z,6.90
2022-11-25T23:10:27.793Z,6.90
2022-11-25T23:12:54.357Z,6.90
2022-11-25T23:15:21.514Z,6.90
2022-11-25T23:17:51.936Z,6.90
2022-11-25T23:20:27.954Z,6.90
2022-11-25T23:22:54.509Z,6.90
2022-11-25T23:25:21.479Z,6.90
2022-11-25T23:27:48.031Z,6.90
2022-11-25T23:30:15.304Z,6.90
2022-11-25T23:32:41.926Z,6.90
2022-11-25T23:35:12.300Z,7.00
2022-11-25T23:37:38.861Z,7.00
2022-11-25T23:40:05.723Z,6.90
2022-11-25T23:42:32.288Z,6.90
2022-11-25T23:44:58.838Z,6.80
2022-11-25T23:47:25.396Z,6.80
2022-11-25T23:49:52.034Z,6.80
2022-11-25T23:52:22.471Z,6.80
2022-11-25T23:54:49.187Z,6.80
2022-11-25T23:57:22.828Z,6.80
2022-11-25T23:59:49.482Z,6.80
